sensor_id;sensor_type;location;lat;lon;timestamp;pressure;altitude;pressure_sealevel;temperature;humidity
34145;BME280;20422;53.014;8.886;2022-10-16T00:01:56;100895.19;;;12.22;100.00
34145;BME280;20422;53.014;8.886;2022-10-16T00:04:21;100911.00;;;12.27;100.00
34145;BME280;20422;53.014;8.886;2022-10-16T00:06:47;100911.72;;;12.29;100.00
34145;BME280;20422;53.014;8.886;2022-10-16T00:09:12;100910.03;;;12.15;100.00
34145;BME280;20422;53.014;8.886;2022-10-16T00:11:39;100939.25;;;12.32;100.00
34145;BME280;20422;53.014;8.886;2022-10-16T00:14:08;100942.03;;;12.31;100.00
34145;BME280;20422;53.014;8.886;2022-10-16T00:16:34;100943.13;;;12.28;100.00
34145;BME280;20422;53.014;8.886;2022-10-16T00:19:00;100906.59;;;12.00;100.00
34145;BME280;20422;53.014;8.886;2022-10-16T00:21:27;100946.56;;;12.18;100.00
34145;BME280;20422;53.014;8.886;2022-10-16T00:23:55;100948.28;;;12.19;100.00
34145;BME280;20422;53.014;8.886;2022-10-16T00:26:21;100948.28;;;12.06;100.00
34145;BME280;20422;53.014;8.886;2022-10-16T00:28:48;100956.03;;;12.10;100.00
34145;BME280;20422;53.014;8.886;2022-10-16T00:31:14;100946.00;;;12.00;100.00
34145;BME280;20422;53.014;8.886;2022-10-16T00:33:40;100940.53;;;12.01;100.00
34145;BME280;20422;53.014;8.886;2022-10-16T00:36:07;100933.13;;;11.92;100.00
34145;BME280;20422;53.014;8.886;2022-10-16T00:38:34;100935.94;;;11.91;100.00
34145;BME280;20422;53.014;8.886;2022-10-16T00:41:00;100933.56;;;11.86;100.00
34145;BME280;20422;53.014;8.886;2022-10-16T00:43:38;100958.06;;;11.94;100.00
34145;BME280;20422;53.014;8.886;2022-10-16T00:46:09;100967.50;;;12.00;100.00
34145;BME280;20422;53.014;8.886;2022-10-16T00:48:36;100942.25;;;11.90;100.00
34145;BME280;20422;53.014;8.886;2022-10-16T00:51:01;100947.94;;;11.98;100.00
34145;BME280;20422;53.014;8.886;2022-10-16T00:53:27;100931.84;;;11.85;100.00
34145;BME280;20422;53.014;8.886;2022-10-16T00:55:53;100942.66;;;11.84;100.00
34145;BME280;20422;53.014;8.886;2022-10-16T00:58:19;100933.19;;;11.78;100.00
34145;BME280;20422;53.014;8.886;2022-10-16T01:00:45;100955.06;;;11.86;100.00
34145;BME280;20422;53.014;8.886;2022-10-16T01:03:29;100961.47;;;11.84;100.00
34145;BME280;20422;53.014;8.886;2022-10-16T01:06:17;100968.75;;;11.82;100.00
34145;BME280;20422;53.014;8.886;2022-10-16T01:08:56;100983.81;;;11.84;100.00
34145;BME280;20422;53.014;8.886;2022-10-16T01:14:39;100971.00;;;11.75;100.00
34145;BME280;20422;53.014;8.886;2022-10-16T01:17:21;100950.59;;;11.72;100.00
34145;BME280;20422;53.014;8.886;2022-10-16T01:20:12;100949.41;;;11.76;100.00
34145;BME280;20422;53.014;8.886;2022-10-16T01:22:45;100961.69;;;11.80;100.00
34145;BME280;20422;53.014;8.886;2022-10-16T01:25:39;100952.31;;;11.73;100.00
34145;BME280;20422;53.014;8.886;2022-10-16T01:28:09;100971.00;;;11.75;100.00
34145;BME280;20422;53.014;8.886;2022-10-16T01:30:38;100961.44;;;11.71;100.00
34145;BME280;20422;53.014;8.886;2022-10-16T01:33:17;100958.97;;;11.68;100.00
34145;BME280;20422;53.014;8.886;2022-10-16T01:35:52;100966.22;;;11.66;100.00
34145;BME280;20422;53.014;8.886;2022-10-16T01:38:26;100951.09;;;11.65;100.00
34145;BME280;20422;53.014;8.886;2022-10-16T01:40:59;100961.19;;;11.61;100.00
34145;BME280;20422;53.014;8.886;2022-10-16T01:43:36;100959.56;;;11.59;100.00
34145;BME280;20422;53.014;8.886;2022-10-16T01:46:03;100958.91;;;11.55;100.00
34145;BME280;20422;53.014;8.886;2022-10-16T01:48:31;100947.72;;;11.48;100.00
34145;BME280;20422;53.014;8.886;2022-10-16T01:51:06;100958.16;;;11.53;100.00
34145;BME280;20422;53.014;8.886;2022-10-16T01:53:33;100964.19;;;11.57;100.00
34145;BME280;20422;53.014;8.886;2022-10-16T01:56:00;100933.44;;;11.35;100.00
34145;BME280;20422;53.014;8.886;2022-10-16T01:58:27;100969.75;;;11.54;100.00
34145;BME280;20422;53.014;8.886;2022-10-16T02:00:55;100944.81;;;11.39;100.00
34145;BME280;20422;53.014;8.886;2022-10-16T02:03:21;100935.03;;;11.38;100.00
34145;BME280;20422;53.014;8.886;2022-10-16T02:05:55;100952.66;;;11.42;100.00
34145;BME280;20422;53.014;8.886;2022-10-16T02:08:23;100951.16;;;11.38;100.00
34145;BME280;20422;53.014;8.886;2022-10-16T02:10:49;100962.31;;;11.44;100.00
34145;BME280;20422;53.014;8.886;2022-10-16T02:13:26;100929.88;;;11.35;100.00
34145;BME280;20422;53.014;8.886;2022-10-16T02:15:54;100951.16;;;11.38;100.00
34145;BME280;20422;53.014;8.886;2022-10-16T02:18:19;100969.13;;;11.50;100.00
34145;BME280;20422;53.014;8.886;2022-10-16T02:20:51;100927.91;;;11.24;100.00
34145;BME280;20422;53.014;8.886;2022-10-16T02:23:29;100942.84;;;11.28;100.00
34145;BME280;20422;53.014;8.886;2022-10-16T02:25:58;100978.72;;;11.40;100.00
34145;BME280;20422;53.014;8.886;2022-10-16T02:28:27;100965.16;;;11.29;100.00
34145;BME280;20422;53.014;8.886;2022-10-16T02:30:59;100987.53;;;11.42;100.00
34145;BME280;20422;53.014;8.886;2022-10-16T02:33:26;100966.22;;;11.26;100.00
34145;BME280;20422;53.014;8.886;2022-10-16T02:35:53;100985.47;;;11.33;100.00
34145;BME280;20422;53.014;8.886;2022-10-16T02:38:20;100986.34;;;11.33;100.00
34145;BME280;20422;53.014;8.886;2022-10-16T02:40:46;100967.41;;;11.22;100.00
34145;BME280;20422;53.014;8.886;2022-10-16T02:43:12;100967.94;;;11.27;100.00
34145;BME280;20422;53.014;8.886;2022-10-16T02:45:38;100974.47;;;11.23;100.00
34145;BME280;20422;53.014;8.886;2022-10-16T02:48:04;100957.84;;;11.18;100.00
34145;BME280;20422;53.014;8.886;2022-10-16T02:50:30;100949.13;;;11.14;100.00
34145;BME280;20422;53.014;8.886;2022-10-16T02:52:55;100949.41;;;11.10;100.00
34145;BME280;20422;53.014;8.886;2022-10-16T02:55:20;100932.97;;;11.02;100.00
34145;BME280;20422;53.014;8.886;2022-10-16T02:57:46;100959.94;;;11.13;100.00
34145;BME280;20422;53.014;8.886;2022-10-16T03:00:13;100931.91;;;11.04;100.00
34145;BME280;20422;53.014;8.886;2022-10-16T03:02:39;100978.41;;;11.32;100.00
34145;BME280;20422;53.014;8.886;2022-10-16T03:05:05;100940.63;;;11.08;100.00
34145;BME280;20422;53.014;8.886;2022-10-16T03:07:30;100954.28;;;11.17;100.00
34145;BME280;20422;53.014;8.886;2022-10-16T03:09:56;100938.03;;;11.06;100.00
34145;BME280;20422;53.014;8.886;2022-10-16T03:12:22;100973.19;;;11.29;100.00
34145;BME280;20422;53.014;8.886;2022-10-16T03:14:47;100978.72;;;11.40;100.00
34145;BME280;20422;53.014;8.886;2022-10-16T03:17:13;100964.88;;;11.33;100.00
34145;BME280;20422;53.014;8.886;2022-10-16T03:19:38;100951.63;;;11.30;100.00
34145;BME280;20422;53.014;8.886;2022-10-16T03:22:04;100939.81;;;11.20;100.00
34145;BME280;20422;53.014;8.886;2022-10-16T03:24:29;100937.03;;;11.22;100.00
34145;BME280;20422;53.014;8.886;2022-10-16T03:26:55;100938.53;;;11.26;100.00
34145;BME280;20422;53.014;8.886;2022-10-16T03:29:20;100975.19;;;11.39;100.00
34145;BME280;20422;53.014;8.886;2022-10-16T03:31:45;100985.28;;;11.48;100.00
34145;BME280;20422;53.014;8.886;2022-10-16T03:34:13;100994.56;;;11.57;100.00
34145;BME280;20422;53.014;8.886;2022-10-16T03:36:38;100953.28;;;11.33;100.00
34145;BME280;20422;53.014;8.886;2022-10-16T03:39:04;100950.28;;;11.37;100.00
34145;BME280;20422;53.014;8.886;2022-10-16T03:41:29;100960.59;;;11.43;100.00
34145;BME280;20422;53.014;8.886;2022-10-16T03:43:54;100942.56;;;11.33;100.00
34145;BME280;20422;53.014;8.886;2022-10-16T03:46:20;100981.25;;;11.56;100.00
34145;BME280;20422;53.014;8.886;2022-10-16T03:49:16;100992.63;;;11.59;100.00
34145;BME280;20422;53.014;8.886;2022-10-16T03:52:55;100998.75;;;11.61;100.00
34145;BME280;20422;53.014;8.886;2022-10-16T03:55:42;100942.19;;;11.25;100.00
34145;BME280;20422;53.014;8.886;2022-10-16T03:58:22;101005.19;;;11.59;100.00
34145;BME280;20422;53.014;8.886;2022-10-16T04:01:57;100951.56;;;11.32;100.00
34145;BME280;20422;53.014;8.886;2022-10-16T04:05:19;101001.13;;;11.66;100.00
34145;BME280;20422;53.014;8.886;2022-10-16T04:08:48;101007.06;;;11.71;100.00
34145;BME280;20422;53.014;8.886;2022-10-16T04:17:51;100981.00;;;11.46;100.00
34145;BME280;20422;53.014;8.886;2022-10-16T04:20:36;101014.53;;;11.66;100.00
34145;BME280;20422;53.014;8.886;2022-10-16T04:26:22;100970.25;;;11.46;100.00
34145;BME280;20422;53.014;8.886;2022-10-16T04:29:20;101026.97;;;11.81;100.00
34145;BME280;20422;53.014;8.886;2022-10-16T04:32:11;101034.06;;;11.82;100.00
34145;BME280;20422;53.014;8.886;2022-10-16T04:35:05;100974.06;;;11.56;100.00
34145;BME280;20422;53.014;8.886;2022-10-16T04:37:49;100951.47;;;11.33;100.00
34145;BME280;20422;53.014;8.886;2022-10-16T04:41:05;101030.81;;;11.77;100.00
34145;BME280;20422;53.014;8.886;2022-10-16T04:43:59;101009.72;;;11.58;100.00
34145;BME280;20422;53.014;8.886;2022-10-16T04:47:23;101034.56;;;11.74;100.00
34145;BME280;20422;53.014;8.886;2022-10-16T04:50:28;101027.97;;;11.66;100.00
34145;BME280;20422;53.014;8.886;2022-10-16T04:53:05;101029.63;;;11.68;100.00
34145;BME280;20422;53.014;8.886;2022-10-16T04:55:41;101001.31;;;11.50;100.00
34145;BME280;20422;53.014;8.886;2022-10-16T04:58:38;101015.81;;;11.60;100.00
34145;BME280;20422;53.014;8.886;2022-10-16T05:01:53;101046.59;;;11.69;100.00
34145;BME280;20422;53.014;8.886;2022-10-16T05:04:24;101024.44;;;11.65;100.00
34145;BME280;20422;53.014;8.886;2022-10-16T05:07:00;100972.25;;;11.30;100.00
34145;BME280;20422;53.014;8.886;2022-10-16T05:10:00;100970.13;;;11.35;100.00
34145;BME280;20422;53.014;8.886;2022-10-16T05:13:09;101029.91;;;11.64;100.00
34145;BME280;20422;53.014;8.886;2022-10-16T05:16:01;101052.28;;;11.77;100.00
34145;BME280;20422;53.014;8.886;2022-10-16T05:19:03;101059.91;;;11.70;100.00
34145;BME280;20422;53.014;8.886;2022-10-16T05:22:13;101064.53;;;11.68;100.00
34145;BME280;20422;53.014;8.886;2022-10-16T05:25:08;101065.47;;;11.67;100.00
34145;BME280;20422;53.014;8.886;2022-10-16T05:28:05;100999.00;;;11.31;100.00
34145;BME280;20422;53.014;8.886;2022-10-16T05:31:34;101071.75;;;11.80;100.00
34145;BME280;20422;53.014;8.886;2022-10-16T05:35:05;101065.22;;;11.85;100.00
34145;BME280;20422;53.014;8.886;2022-10-16T05:40:50;101003.22;;;11.48;100.00
34145;BME280;20422;53.014;8.886;2022-10-16T05:47:13;101019.78;;;11.55;100.00
34145;BME280;20422;53.014;8.886;2022-10-16T05:49:51;101019.91;;;11.53;100.00
34145;BME280;20422;53.014;8.886;2022-10-16T05:55:42;100995.53;;;11.29;100.00
34145;BME280;20422;53.014;8.886;2022-10-16T05:58:23;101041.13;;;11.70;100.00
34145;BME280;20422;53.014;8.886;2022-10-16T06:04:21;101092.44;;;11.93;100.00
34145;BME280;20422;53.014;8.886;2022-10-16T06:07:09;101096.84;;;11.94;100.00
34145;BME280;20422;53.014;8.886;2022-10-16T06:09:52;101068.72;;;11.72;100.00
34145;BME280;20422;53.014;8.886;2022-10-16T06:13:25;101110.28;;;11.94;100.00
34145;BME280;20422;53.014;8.886;2022-10-16T06:16:19;101073.00;;;11.75;100.00
34145;BME280;20422;53.014;8.886;2022-10-16T06:19:23;101050.31;;;11.66;100.00
34145;BME280;20422;53.014;8.886;2022-10-16T06:24:59;101029.34;;;11.59;100.00
34145;BME280;20422;53.014;8.886;2022-10-16T06:27:29;101104.00;;;12.07;100.00
34145;BME280;20422;53.014;8.886;2022-10-16T06:33:11;101054.59;;;11.83;100.00
34145;BME280;20422;53.014;8.886;2022-10-16T06:36:33;101119.25;;;12.20;100.00
34145;BME280;20422;53.014;8.886;2022-10-16T06:39:55;101056.41;;;11.83;100.00
34145;BME280;20422;53.014;8.886;2022-10-16T06:43:14;101087.66;;;12.10;100.00
34145;BME280;20422;53.014;8.886;2022-10-16T06:46:09;101128.69;;;12.39;100.00
34145;BME280;20422;53.014;8.886;2022-10-16T06:48:56;101073.78;;;12.04;100.00
34145;BME280;20422;53.014;8.886;2022-10-16T06:52:02;101132.97;;;12.42;100.00
34145;BME280;20422;53.014;8.886;2022-10-16T06:55:38;101150.81;;;12.56;100.00
34145;BME280;20422;53.014;8.886;2022-10-16T06:58:53;101080.66;;;12.21;100.00
34145;BME280;20422;53.014;8.886;2022-10-16T07:01:55;101157.22;;;12.80;100.00
34145;BME280;20422;53.014;8.886;2022-10-16T07:04:44;101094.28;;;12.45;100.00
34145;BME280;20422;53.014;8.886;2022-10-16T07:07:48;101159.38;;;13.00;100.00
34145;BME280;20422;53.014;8.886;2022-10-16T07:10:30;101169.16;;;13.14;100.00
34145;BME280;20422;53.014;8.886;2022-10-16T07:13:27;101125.47;;;12.85;100.00
34145;BME280;20422;53.014;8.886;2022-10-16T07:17:02;101167.91;;;13.20;100.00
34145;BME280;20422;53.014;8.886;2022-10-16T07:20:02;101114.72;;;13.23;100.00
34145;BME280;20422;53.014;8.886;2022-10-16T07:23:12;101188.19;;;14.23;100.00
34145;BME280;20422;53.014;8.886;2022-10-16T07:25:53;101149.63;;;14.33;100.00
34145;BME280;20422;53.014;8.886;2022-10-16T07:28:43;101174.50;;;14.96;100.00
34145;BME280;20422;53.014;8.886;2022-10-16T07:31:31;101147.06;;;14.67;100.00
34145;BME280;20422;53.014;8.886;2022-10-16T07:34:12;101127.72;;;14.73;100.00
34145;BME280;20422;53.014;8.886;2022-10-16T07:37:12;101129.47;;;14.96;100.00
34145;BME280;20422;53.014;8.886;2022-10-16T07:40:14;101153.69;;;15.97;100.00
34145;BME280;20422;53.014;8.886;2022-10-16T07:43:35;101187.84;;;16.41;100.00
34145;BME280;20422;53.014;8.886;2022-10-16T07:46:54;101195.63;;;15.91;100.00
34145;BME280;20422;53.014;8.886;2022-10-16T07:50:07;101206.44;;;15.35;100.00
34145;BME280;20422;53.014;8.886;2022-10-16T07:53:42;101197.09;;;14.71;100.00
34145;BME280;20422;53.014;8.886;2022-10-16T07:59:45;101150.75;;;14.07;100.00
34145;BME280;20422;53.014;8.886;2022-10-16T08:02:32;101222.59;;;14.43;100.00
34145;BME280;20422;53.014;8.886;2022-10-16T08:04:57;101199.09;;;14.21;100.00
34145;BME280;20422;53.014;8.886;2022-10-16T08:07:22;101214.56;;;14.30;100.00
34145;BME280;20422;53.014;8.886;2022-10-16T08:09:51;101239.56;;;14.32;100.00
34145;BME280;20422;53.014;8.886;2022-10-16T08:12:17;101206.22;;;14.22;100.00
34145;BME280;20422;53.014;8.886;2022-10-16T08:14:42;101228.88;;;14.43;100.00
34145;BME280;20422;53.014;8.886;2022-10-16T08:17:07;101198.69;;;14.62;100.00
34145;BME280;20422;53.014;8.886;2022-10-16T08:19:33;101211.19;;;14.63;100.00
34145;BME280;20422;53.014;8.886;2022-10-16T08:22:00;101253.25;;;15.01;100.00
34145;BME280;20422;53.014;8.886;2022-10-16T08:24:25;101238.66;;;15.03;100.00
34145;BME280;20422;53.014;8.886;2022-10-16T08:26:53;101254.69;;;15.29;100.00
34145;BME280;20422;53.014;8.886;2022-10-16T08:29:18;101248.81;;;15.46;100.00
34145;BME280;20422;53.014;8.886;2022-10-16T08:31:44;101231.38;;;15.61;100.00
34145;BME280;20422;53.014;8.886;2022-10-16T08:34:09;101255.41;;;15.42;100.00
34145;BME280;20422;53.014;8.886;2022-10-16T08:36:34;101235.88;;;15.38;100.00
34145;BME280;20422;53.014;8.886;2022-10-16T08:38:59;101261.56;;;15.44;100.00
34145;BME280;20422;53.014;8.886;2022-10-16T08:41:39;101263.63;;;15.29;100.00
34145;BME280;20422;53.014;8.886;2022-10-16T08:49:56;101267.94;;;16.76;100.00
34145;BME280;20422;53.014;8.886;2022-10-16T08:52:24;101258.16;;;16.52;100.00
34145;BME280;20422;53.014;8.886;2022-10-16T08:54:53;101270.63;;;16.65;100.00
34145;BME280;20422;53.014;8.886;2022-10-16T08:57:21;101263.16;;;16.68;98.90
34145;BME280;20422;53.014;8.886;2022-10-16T08:59:47;101245.09;;;16.57;98.33
34145;BME280;20422;53.014;8.886;2022-10-16T09:02:32;101276.19;;;16.74;99.07
34145;BME280;20422;53.014;8.886;2022-10-16T09:10:43;101271.50;;;16.97;96.96
34145;BME280;20422;53.014;8.886;2022-10-16T09:13:29;101286.22;;;17.04;95.79
34145;BME280;20422;53.014;8.886;2022-10-16T09:19:27;101306.59;;;17.19;96.03
34145;BME280;20422;53.014;8.886;2022-10-16T09:21:49;101292.13;;;17.30;95.32
34145;BME280;20422;53.014;8.886;2022-10-16T09:24:19;101296.59;;;17.41;94.67
34145;BME280;20422;53.014;8.886;2022-10-16T09:26:46;101310.09;;;17.52;94.16
34145;BME280;20422;53.014;8.886;2022-10-16T09:29:13;101284.53;;;17.45;93.39
34145;BME280;20422;53.014;8.886;2022-10-16T09:31:38;101303.22;;;17.48;93.58
34145;BME280;20422;53.014;8.886;2022-10-16T09:34:05;101297.75;;;17.80;93.08
34145;BME280;20422;53.014;8.886;2022-10-16T09:36:43;101287.53;;;18.03;92.89
34145;BME280;20422;53.014;8.886;2022-10-16T09:39:10;101298.59;;;18.21;90.93
34145;BME280;20422;53.014;8.886;2022-10-16T09:41:39;101305.53;;;18.04;89.55
34145;BME280;20422;53.014;8.886;2022-10-16T09:46:41;101319.34;;;17.70;89.88
34145;BME280;20422;53.014;8.886;2022-10-16T09:49:25;101307.25;;;17.53;90.80
34145;BME280;20422;53.014;8.886;2022-10-16T09:51:51;101310.78;;;17.44;90.88
34145;BME280;20422;53.014;8.886;2022-10-16T09:54:19;101317.09;;;17.34;92.16
34145;BME280;20422;53.014;8.886;2022-10-16T09:56:44;101309.66;;;17.26;92.32
34145;BME280;20422;53.014;8.886;2022-10-16T09:59:20;101311.47;;;17.05;93.17
34145;BME280;20422;53.014;8.886;2022-10-16T10:01:48;101309.69;;;17.15;93.19
34145;BME280;20422;53.014;8.886;2022-10-16T10:04:15;101326.44;;;17.62;93.13
34145;BME280;20422;53.014;8.886;2022-10-16T10:09:26;101315.00;;;18.19;90.96
34145;BME280;20422;53.014;8.886;2022-10-16T10:12:00;101326.78;;;18.39;89.89
34145;BME280;20422;53.014;8.886;2022-10-16T10:14:28;101333.16;;;18.19;89.33
34145;BME280;20422;53.014;8.886;2022-10-16T10:19:29;101333.88;;;18.21;89.75
34145;BME280;20422;53.014;8.886;2022-10-16T10:21:55;101297.69;;;18.10;90.33
34145;BME280;20422;53.014;8.886;2022-10-16T10:24:20;101312.44;;;18.18;90.43
34145;BME280;20422;53.014;8.886;2022-10-16T10:29:27;101321.53;;;18.07;89.36
34145;BME280;20422;53.014;8.886;2022-10-16T10:32:00;101354.66;;;17.80;87.79
34145;BME280;20422;53.014;8.886;2022-10-16T10:34:55;101356.75;;;17.56;89.92
34145;BME280;20422;53.014;8.886;2022-10-16T10:46:09;101371.25;;;17.45;90.77
34145;BME280;20422;53.014;8.886;2022-10-16T10:49:00;101375.25;;;17.92;91.04
34145;BME280;20422;53.014;8.886;2022-10-16T10:51:44;101381.53;;;18.14;90.05
34145;BME280;20422;53.014;8.886;2022-10-16T10:54:49;101383.81;;;17.88;89.05
34145;BME280;20422;53.014;8.886;2022-10-16T10:57:35;101371.25;;;17.87;89.04
34145;BME280;20422;53.014;8.886;2022-10-16T11:05:33;101379.69;;;18.54;90.08
34145;BME280;20422;53.014;8.886;2022-10-16T11:08:07;101375.91;;;18.46;86.89
34145;BME280;20422;53.014;8.886;2022-10-16T11:11:04;101374.19;;;18.35;88.10
34145;BME280;20422;53.014;8.886;2022-10-16T11:16:22;101381.41;;;18.15;88.02
34145;BME280;20422;53.014;8.886;2022-10-16T11:22:04;101382.50;;;17.82;86.06
34145;BME280;20422;53.014;8.886;2022-10-16T11:24:42;101392.47;;;18.02;85.02
34145;BME280;20422;53.014;8.886;2022-10-16T11:27:09;101381.91;;;18.09;82.40
34145;BME280;20422;53.014;8.886;2022-10-16T11:29:45;101383.03;;;18.37;82.59
34145;BME280;20422;53.014;8.886;2022-10-16T11:35:25;101362.66;;;18.52;83.50
34145;BME280;20422;53.014;8.886;2022-10-16T11:37:58;101395.03;;;18.75;81.85
34145;BME280;20422;53.014;8.886;2022-10-16T11:40:38;101407.03;;;18.72;80.25
34145;BME280;20422;53.014;8.886;2022-10-16T11:45:42;101404.16;;;18.64;80.78
34145;BME280;20422;53.014;8.886;2022-10-16T11:48:30;101418.53;;;18.55;79.08
34145;BME280;20422;53.014;8.886;2022-10-16T11:51:11;101403.81;;;18.57;80.57
34145;BME280;20422;53.014;8.886;2022-10-16T11:56:24;101419.25;;;18.57;81.78
34145;BME280;20422;53.014;8.886;2022-10-16T11:58:59;101426.06;;;18.82;81.59
34145;BME280;20422;53.014;8.886;2022-10-16T12:01:35;101426.91;;;18.82;81.13
34145;BME280;20422;53.014;8.886;2022-10-16T12:04:27;101424.84;;;19.05;80.25
34145;BME280;20422;53.014;8.886;2022-10-16T12:07:04;101367.09;;;19.03;79.94
34145;BME280;20422;53.014;8.886;2022-10-16T12:09:34;101423.94;;;18.85;79.15
34145;BME280;20422;53.014;8.886;2022-10-16T12:12:01;101431.19;;;18.75;79.09
34145;BME280;20422;53.014;8.886;2022-10-16T12:17:00;101433.72;;;19.07;79.13
34145;BME280;20422;53.014;8.886;2022-10-16T12:19:28;101435.00;;;19.13;77.65
34145;BME280;20422;53.014;8.886;2022-10-16T12:21:59;101440.56;;;19.21;77.87
34145;BME280;20422;53.014;8.886;2022-10-16T12:24:42;101428.84;;;19.30;77.21
34145;BME280;20422;53.014;8.886;2022-10-16T12:27:28;101439.03;;;19.47;77.04
34145;BME280;20422;53.014;8.886;2022-10-16T12:29:59;101435.69;;;18.95;78.10
34145;BME280;20422;53.014;8.886;2022-10-16T12:32:32;101448.25;;;18.87;78.78
34145;BME280;20422;53.014;8.886;2022-10-16T12:35:00;101421.25;;;18.95;77.38
34145;BME280;20422;53.014;8.886;2022-10-16T12:37:31;101456.31;;;19.37;78.78
34145;BME280;20422;53.014;8.886;2022-10-16T12:39:57;101449.25;;;18.95;76.18
34145;BME280;20422;53.014;8.886;2022-10-16T12:44:51;101466.41;;;18.56;80.17
34145;BME280;20422;53.014;8.886;2022-10-16T12:49:53;101479.50;;;18.71;78.40
34145;BME280;20422;53.014;8.886;2022-10-16T12:54:57;101465.69;;;18.94;78.91
34145;BME280;20422;53.014;8.886;2022-10-16T12:57:52;101480.34;;;19.22;75.66
34145;BME280;20422;53.014;8.886;2022-10-16T13:00:50;101455.28;;;19.18;75.09
34145;BME280;20422;53.014;8.886;2022-10-16T13:03:29;101478.59;;;19.21;74.16
34145;BME280;20422;53.014;8.886;2022-10-16T13:11:43;101484.19;;;18.49;76.37
34145;BME280;20422;53.014;8.886;2022-10-16T13:14:33;101492.06;;;18.73;76.82
34145;BME280;20422;53.014;8.886;2022-10-16T13:22:34;101502.78;;;19.05;73.37
34145;BME280;20422;53.014;8.886;2022-10-16T13:28:05;101496.19;;;19.17;73.96
34145;BME280;20422;53.014;8.886;2022-10-16T13:30:42;101485.03;;;19.20;73.69
34145;BME280;20422;53.014;8.886;2022-10-16T13:35:54;101525.44;;;18.94;74.44
34145;BME280;20422;53.014;8.886;2022-10-16T13:38:22;101489.13;;;18.55;76.34
34145;BME280;20422;53.014;8.886;2022-10-16T13:41:04;101531.13;;;18.81;74.37
34145;BME280;20422;53.014;8.886;2022-10-16T13:43:45;101526.09;;;18.77;76.17
34145;BME280;20422;53.014;8.886;2022-10-16T13:46:15;101476.75;;;18.41;74.49
34145;BME280;20422;53.014;8.886;2022-10-16T13:48:40;101538.56;;;18.58;74.22
34145;BME280;20422;53.014;8.886;2022-10-16T13:53:35;101520.19;;;18.41;75.66
34145;BME280;20422;53.014;8.886;2022-10-16T13:56:03;101505.03;;;18.38;75.83
34145;BME280;20422;53.014;8.886;2022-10-16T13:58:28;101514.34;;;18.46;72.62
34145;BME280;20422;53.014;8.886;2022-10-16T14:27:45;101573.34;;;18.23;74.03
34145;BME280;20422;53.014;8.886;2022-10-16T14:30:14;101563.75;;;18.19;74.05
34145;BME280;20422;53.014;8.886;2022-10-16T14:32:42;101581.66;;;18.31;73.82
34145;BME280;20422;53.014;8.886;2022-10-16T14:37:53;101571.44;;;18.14;74.06
34145;BME280;20422;53.014;8.886;2022-10-16T14:40:21;101574.50;;;18.09;75.80
34145;BME280;20422;53.014;8.886;2022-10-16T14:43:05;101568.63;;;18.04;75.41
34145;BME280;20422;53.014;8.886;2022-10-16T14:49:17;101568.47;;;18.05;75.72
34145;BME280;20422;53.014;8.886;2022-10-16T14:51:44;101501.19;;;17.46;75.41
34145;BME280;20422;53.014;8.886;2022-10-16T14:54:11;101587.41;;;17.96;75.59
34145;BME280;20422;53.014;8.886;2022-10-16T14:56:45;101600.31;;;18.03;74.61
34145;BME280;20422;53.014;8.886;2022-10-16T15:00:00;101596.88;;;18.01;75.34
34145;BME280;20422;53.014;8.886;2022-10-16T15:02:15;101601.06;;;17.94;77.08
34145;BME280;20422;53.014;8.886;2022-10-16T15:04:42;101594.75;;;17.73;76.57
34145;BME280;20422;53.014;8.886;2022-10-16T15:07:08;101590.94;;;17.64;78.19
34145;BME280;20422;53.014;8.886;2022-10-16T15:58:07;101595.59;;;16.50;83.38
34145;BME280;20422;53.014;8.886;2022-10-16T16:00:32;101620.34;;;16.57;83.78
34145;BME280;20422;53.014;8.886;2022-10-16T16:02:57;101625.66;;;16.58;84.34
34145;BME280;20422;53.014;8.886;2022-10-16T16:05:25;101636.78;;;16.43;85.40
34145;BME280;20422;53.014;8.886;2022-10-16T16:12:10;101527.56;;;15.38;88.34
34145;BME280;20422;53.014;8.886;2022-10-16T16:36:18;101683.41;;;15.13;93.30
34145;BME280;20422;53.014;8.886;2022-10-16T16:38:44;101661.69;;;14.89;94.30
34145;BME280;20422;53.014;8.886;2022-10-16T17:23:31;101671.72;;;13.53;100.00
34145;BME280;20422;53.014;8.886;2022-10-16T17:25:56;101739.50;;;13.88;100.00
34145;BME280;20422;53.014;8.886;2022-10-16T17:28:21;101759.28;;;14.02;100.00
34145;BME280;20422;53.014;8.886;2022-10-16T17:30:47;101764.72;;;13.87;100.00
34145;BME280;20422;53.014;8.886;2022-10-16T17:33:13;101748.66;;;13.72;100.00
34145;BME280;20422;53.014;8.886;2022-10-16T17:35:45;101775.69;;;13.70;100.00
34145;BME280;20422;53.014;8.886;2022-10-16T17:42:11;101737.72;;;13.18;100.00
34145;BME280;20422;53.014;8.886;2022-10-16T17:44:36;101731.41;;;13.03;100.00
34145;BME280;20422;53.014;8.886;2022-10-16T17:47:02;101760.16;;;13.17;100.00
34145;BME280;20422;53.014;8.886;2022-10-16T17:49:27;101789.06;;;13.29;100.00
34145;BME280;20422;53.014;8.886;2022-10-16T17:51:53;101796.75;;;13.35;100.00
34145;BME280;20422;53.014;8.886;2022-10-16T17:54:19;101759.50;;;13.13;100.00
34145;BME280;20422;53.014;8.886;2022-10-16T17:56:45;101784.38;;;13.17;100.00
34145;BME280;20422;53.014;8.886;2022-10-16T18:05:45;101760.53;;;12.66;100.00
34145;BME280;20422;53.014;8.886;2022-10-16T18:08:10;101841.97;;;13.14;100.00
34145;BME280;20422;53.014;8.886;2022-10-16T18:10:35;101807.31;;;12.94;100.00
34145;BME280;20422;53.014;8.886;2022-10-16T18:13:01;101783.69;;;12.69;100.00
34145;BME280;20422;53.014;8.886;2022-10-16T18:22:15;101824.13;;;12.67;100.00